sensor_id;sensor_type;location;lat;lon;timestamp;pressure;altitude;pressure_sealevel;temperature;humidity
13241;BME280;6687;47.790;7.322;2023-04-16T05:24:54;99169.97;;;12.13;73.67
13241;BME280;6687;47.790;7.322;2023-04-16T05:27:21;99175.16;;;12.17;73.70
13241;BME280;6687;47.790;7.322;2023-04-16T05:29:48;99182.09;;;12.11;73.31
13241;BME280;6687;47.790;7.322;2023-04-16T05:32:15;99180.38;;;12.04;73.17
13241;BME280;6687;47.790;7.322;2023-04-16T05:34:42;99180.34;;;12.13;72.67
13241;BME280;6687;47.790;7.322;2023-04-16T05:37:09;99179.50;;;12.24;72.46
13241;BME280;6687;47.790;7.322;2023-04-16T05:39:35;99190.75;;;12.07;72.64
13241;BME280;6687;47.790;7.322;2023-04-16T05:42:03;99195.94;;;12.17;72.16
13241;BME280;6687;47.790;7.322;2023-04-16T05:44:30;99190.72;;;12.29;71.56
13241;BME280;6687;47.790;7.322;2023-04-16T05:46:57;99194.19;;;12.31;71.54
13241;BME280;6687;47.790;7.322;2023-04-16T05:49:23;99193.34;;;12.32;71.13
13241;BME280;6687;47.790;7.322;2023-04-16T05:51:50;99199.38;;;12.37;70.79
13241;BME280;6687;47.790;7.322;2023-04-16T05:54:17;99195.06;;;12.38;70.79
13241;BME280;6687;47.790;7.322;2023-04-16T05:56:43;99203.72;;;12.35;70.93
13241;BME280;6687;47.790;7.322;2023-04-16T05:59:11;99197.63;;;12.47;69.73
13241;BME280;6687;47.790;7.322;2023-04-16T06:01:38;99208.03;;;12.48;69.93
13241;BME280;6687;47.790;7.322;2023-04-16T06:04:05;99210.66;;;12.25;70.32
13241;BME280;6687;47.790;7.322;2023-04-16T06:06:32;99213.22;;;12.48;69.74
13241;BME280;6687;47.790;7.322;2023-04-16T06:08:58;99206.31;;;12.53;69.08
13241;BME280;6687;47.790;7.322;2023-04-16T06:11:25;99213.22;;;12.51;68.90
13241;BME280;6687;47.790;7.322;2023-04-16T06:13:52;99208.00;;;12.54;68.96
13241;BME280;6687;47.790;7.322;2023-04-16T06:16:21;99215.84;;;12.51;69.17
13241;BME280;6687;47.790;7.322;2023-04-16T06:18:47;99214.97;;;12.56;69.05
13241;BME280;6687;47.790;7.322;2023-04-16T06:21:14;99221.91;;;12.40;69.22
13241;BME280;6687;47.790;7.322;2023-04-16T06:23:41;99225.34;;;12.52;68.67
13241;BME280;6687;47.790;7.322;2023-04-16T06:26:08;99218.44;;;12.51;68.73
13241;BME280;6687;47.790;7.322;2023-04-16T06:28:34;99231.38;;;12.59;68.50
13241;BME280;6687;47.790;7.322;2023-04-16T06:31:01;99228.81;;;12.39;68.18
13241;BME280;6687;47.790;7.322;2023-04-16T06:33:29;99240.97;;;12.19;67.81
13241;BME280;6687;47.790;7.322;2023-04-16T06:35:56;99226.19;;;12.53;67.99
13241;BME280;6687;47.790;7.322;2023-04-16T06:38:22;99227.06;;;12.63;67.64
13241;BME280;6687;47.790;7.322;2023-04-16T06:40:49;99223.59;;;12.61;67.41
13241;BME280;6687;47.790;7.322;2023-04-16T06:43:16;99223.59;;;12.71;66.94
13241;BME280;6687;47.790;7.322;2023-04-16T06:45:43;99231.44;;;12.02;67.38
13241;BME280;6687;47.790;7.322;2023-04-16T06:48:10;99236.66;;;12.14;66.58
13241;BME280;6687;47.790;7.322;2023-04-16T06:50:38;99225.34;;;12.62;66.94
13241;BME280;6687;47.790;7.322;2023-04-16T06:53:04;99232.25;;;12.63;67.13
13241;BME280;6687;47.790;7.322;2023-04-16T06:55:31;99231.41;;;12.64;66.80
13241;BME280;6687;47.790;7.322;2023-04-16T06:57:58;99242.66;;;12.72;66.79
13241;BME280;6687;47.790;7.322;2023-04-16T07:00:24;99239.19;;;12.61;67.06
13241;BME280;6687;47.790;7.322;2023-04-16T07:02:51;99244.41;;;12.53;66.45
13241;BME280;6687;47.790;7.322;2023-04-16T07:05:18;99238.31;;;12.59;66.48
13241;BME280;6687;47.790;7.322;2023-04-16T07:07:46;99247.84;;;12.66;66.53
13241;BME280;6687;47.790;7.322;2023-04-16T07:10:13;99243.53;;;12.69;66.63
13241;BME280;6687;47.790;7.322;2023-04-16T07:12:40;99249.56;;;12.85;65.85
13241;BME280;6687;47.790;7.322;2023-04-16T07:15:07;99247.84;;;12.81;65.91
13241;BME280;6687;47.790;7.322;2023-04-16T07:17:34;99250.44;;;12.81;65.83
13241;BME280;6687;47.790;7.322;2023-04-16T07:20:01;99248.72;;;12.74;65.69
13241;BME280;6687;47.790;7.322;2023-04-16T07:22:27;99247.00;;;12.54;65.57
13241;BME280;6687;47.790;7.322;2023-04-16T07:24:55;99253.06;;;12.60;65.91
13241;BME280;6687;47.790;7.322;2023-04-16T07:27:22;99254.81;;;12.54;65.90
13241;BME280;6687;47.790;7.322;2023-04-16T07:29:49;99250.44;;;12.61;64.77
13241;BME280;6687;47.790;7.322;2023-04-16T07:32:16;99254.81;;;12.33;65.03
13241;BME280;6687;47.790;7.322;2023-04-16T07:34:42;99252.19;;;12.64;65.30
13241;BME280;6687;47.790;7.322;2023-04-16T07:37:09;99254.81;;;12.48;65.71
13241;BME280;6687;47.790;7.322;2023-04-16T07:39:36;99260.91;;;12.12;65.69
13241;BME280;6687;47.790;7.322;2023-04-16T07:42:04;99265.19;;;12.61;65.17
13241;BME280;6687;47.790;7.322;2023-04-16T07:44:31;99267.78;;;12.68;65.77
13241;BME280;6687;47.790;7.322;2023-04-16T07:46:58;99261.72;;;12.62;65.75
13241;BME280;6687;47.790;7.322;2023-04-16T07:49:25;99269.53;;;12.40;65.46
13241;BME280;6687;47.790;7.322;2023-04-16T07:51:51;99271.28;;;12.53;66.17
13241;BME280;6687;47.790;7.322;2023-04-16T07:54:18;99274.72;;;12.66;65.83
13241;BME280;6687;47.790;7.322;2023-04-16T07:56:45;99276.44;;;12.72;65.54
13241;BME280;6687;47.790;7.322;2023-04-16T07:59:13;99279.91;;;12.82;65.51
13241;BME280;6687;47.790;7.322;2023-04-16T08:01:40;99293.75;;;12.90;64.98
13241;BME280;6687;47.790;7.322;2023-04-16T08:04:07;99287.69;;;12.86;65.24
13241;BME280;6687;47.790;7.322;2023-04-16T08:06:33;99288.53;;;12.96;65.39
13241;BME280;6687;47.790;7.322;2023-04-16T08:09:00;99294.59;;;13.00;65.12
13241;BME280;6687;47.790;7.322;2023-04-16T08:11:27;99296.31;;;12.94;64.99
13241;BME280;6687;47.790;7.322;2023-04-16T08:13:53;99303.28;;;12.89;65.02
13241;BME280;6687;47.790;7.322;2023-04-16T08:16:21;99300.66;;;13.00;64.82
13241;BME280;6687;47.790;7.322;2023-04-16T08:18:48;99315.34;;;13.09;64.74
13241;BME280;6687;47.790;7.322;2023-04-16T08:21:15;99309.31;;;13.13;64.56
13241;BME280;6687;47.790;7.322;2023-04-16T08:23:42;99313.63;;;13.17;64.70
13241;BME280;6687;47.790;7.322;2023-04-16T08:26:08;99318.81;;;13.17;64.80
13241;BME280;6687;47.790;7.322;2023-04-16T08:28:35;99324.09;;;12.71;64.64
13241;BME280;6687;47.790;7.322;2023-04-16T08:31:02;99327.56;;;12.85;64.41
13241;BME280;6687;47.790;7.322;2023-04-16T08:33:30;99324.91;;;13.08;64.13
13241;BME280;6687;47.790;7.322;2023-04-16T08:35:57;99323.16;;;13.09;64.16
13241;BME280;6687;47.790;7.322;2023-04-16T08:38:23;99328.44;;;12.67;63.98
13241;BME280;6687;47.790;7.322;2023-04-16T08:40:50;99322.31;;;13.13;64.09
13241;BME280;6687;47.790;7.322;2023-04-16T08:43:21;99323.16;;;13.21;63.75
13241;BME280;6687;47.790;7.322;2023-04-16T08:45:50;99323.16;;;13.09;64.18
13241;BME280;6687;47.790;7.322;2023-04-16T08:48:20;99332.69;;;13.19;63.51
13241;BME280;6687;47.790;7.322;2023-04-16T08:50:51;99325.75;;;13.33;63.66
13241;BME280;6687;47.790;7.322;2023-04-16T08:53:21;99332.66;;;13.35;64.29
13241;BME280;6687;47.790;7.322;2023-04-16T08:55:52;99337.00;;;13.26;63.97
13241;BME280;6687;47.790;7.322;2023-04-16T08:58:21;99333.53;;;13.41;64.02
13241;BME280;6687;47.790;7.322;2023-04-16T09:00:48;99331.81;;;13.32;64.07
13241;BME280;6687;47.790;7.322;2023-04-16T09:03:15;99334.34;;;13.48;63.40
13241;BME280;6687;47.790;7.322;2023-04-16T09:05:44;99331.84;;;13.14;63.17
13241;BME280;6687;47.790;7.322;2023-04-16T09:08:12;99332.63;;;13.44;63.26
13241;BME280;6687;47.790;7.322;2023-04-16T09:10:39;99337.81;;;13.50;63.10
13241;BME280;6687;47.790;7.322;2023-04-16T09:13:06;99333.44;;;13.60;63.02
13241;BME280;6687;47.790;7.322;2023-04-16T09:15:34;99334.25;;;13.66;63.47
13241;BME280;6687;47.790;7.322;2023-04-16T09:18:01;99337.75;;;13.65;63.95
13241;BME280;6687;47.790;7.322;2023-04-16T09:20:27;99337.72;;;13.71;63.37
13241;BME280;6687;47.790;7.322;2023-04-16T09:22:54;99346.38;;;13.83;63.17
13241;BME280;6687;47.790;7.322;2023-04-16T09:25:23;99338.50;;;13.87;62.19
13241;BME280;6687;47.790;7.322;2023-04-16T09:27:50;99340.22;;;13.93;62.44
13241;BME280;6687;47.790;7.322;2023-04-16T09:30:18;99341.03;;;14.01;62.83
13241;BME280;6687;47.790;7.322;2023-04-16T09:32:46;99349.72;;;14.00;62.86
13241;BME280;6687;47.790;7.322;2023-04-16T09:35:13;99350.66;;;13.91;62.07
13241;BME280;6687;47.790;7.322;2023-04-16T09:37:41;99346.38;;;13.83;61.03
13241;BME280;6687;47.790;7.322;2023-04-16T09:40:08;99348.78;;;14.15;61.31
13241;BME280;6687;47.790;7.322;2023-04-16T09:42:36;99347.16;;;13.94;60.98
13241;BME280;6687;47.790;7.322;2023-04-16T09:45:04;99346.22;;;14.07;60.46
13241;BME280;6687;47.790;7.322;2023-04-16T09:47:41;99351.38;;;14.13;60.86
13241;BME280;6687;47.790;7.322;2023-04-16T09:50:09;99347.63;;;14.55;61.08
13241;BME280;6687;47.790;7.322;2023-04-16T09:52:42;99354.59;;;14.59;60.09
13241;BME280;6687;47.790;7.322;2023-04-16T09:55:09;99359.75;;;14.63;59.41
13241;BME280;6687;47.790;7.322;2023-04-16T09:57:37;99364.16;;;14.57;59.31
13241;BME280;6687;47.790;7.322;2023-04-16T10:00:05;99357.00;;;14.80;59.42
13241;BME280;6687;47.790;7.322;2023-04-16T10:02:34;99369.16;;;14.84;58.54
13241;BME280;6687;47.790;7.322;2023-04-16T10:05:03;99374.31;;;14.89;58.27
13241;BME280;6687;47.790;7.322;2023-04-16T10:07:33;99375.09;;;14.96;58.18
13241;BME280;6687;47.790;7.322;2023-04-16T10:09:59;99375.97;;;14.98;57.81
13241;BME280;6687;47.790;7.322;2023-04-16T10:12:26;99379.34;;;15.07;57.64
13241;BME280;6687;47.790;7.322;2023-04-16T10:14:55;99374.97;;;15.14;57.90
13241;BME280;6687;47.790;7.322;2023-04-16T10:17:22;99374.91;;;15.19;57.33
13241;BME280;6687;47.790;7.322;2023-04-16T10:19:49;99373.06;;;15.27;57.50
13241;BME280;6687;47.790;7.322;2023-04-16T10:22:16;99379.19;;;15.24;57.24
13241;BME280;6687;47.790;7.322;2023-04-16T10:24:45;99378.16;;;15.38;57.68
13241;BME280;6687;47.790;7.322;2023-04-16T10:27:12;99383.44;;;15.35;57.68
13241;BME280;6687;47.790;7.322;2023-04-16T10:29:39;99387.66;;;15.45;57.33
13241;BME280;6687;47.790;7.322;2023-04-16T10:32:08;99382.44;;;15.48;56.78
13241;BME280;6687;47.790;7.322;2023-04-16T10:34:35;99387.44;;;15.66;57.28
13241;BME280;6687;47.790;7.322;2023-04-16T10:37:01;99384.75;;;15.74;56.72
13241;BME280;6687;47.790;7.322;2023-04-16T10:39:28;99381.25;;;15.77;57.45
13241;BME280;6687;47.790;7.322;2023-04-16T10:42:07;99388.06;;;15.87;57.18
13241;BME280;6687;47.790;7.322;2023-04-16T10:44:34;99391.44;;;15.95;57.28
13241;BME280;6687;47.790;7.322;2023-04-16T10:47:01;99391.41;;;15.98;56.62
13241;BME280;6687;47.790;7.322;2023-04-16T10:49:29;99387.88;;;16.04;56.31
13241;BME280;6687;47.790;7.322;2023-04-16T10:51:57;99393.03;;;16.08;56.18
13241;BME280;6687;47.790;7.322;2023-04-16T10:54:25;99386.75;;;16.22;56.18
13241;BME280;6687;47.790;7.322;2023-04-16T10:56:55;99395.34;;;16.28;56.03
13241;BME280;6687;47.790;7.322;2023-04-16T10:59:23;99389.66;;;16.00;55.23
13241;BME280;6687;47.790;7.322;2023-04-16T11:01:51;99393.75;;;16.20;55.56
13241;BME280;6687;47.790;7.322;2023-04-16T11:04:32;99396.50;;;16.07;55.10
13241;BME280;6687;47.790;7.322;2023-04-16T11:07:01;99398.41;;;15.96;54.73
13241;BME280;6687;47.790;7.322;2023-04-16T11:09:45;99391.44;;;15.95;54.32
13241;BME280;6687;47.790;7.322;2023-04-16T11:12:13;99401.97;;;15.90;54.11
13241;BME280;6687;47.790;7.322;2023-04-16T11:14:41;99402.13;;;15.80;54.24
13241;BME280;6687;47.790;7.322;2023-04-16T11:17:08;99397.13;;;15.55;55.86
13241;BME280;6687;47.790;7.322;2023-04-16T11:19:36;99404.06;;;15.58;55.54
13241;BME280;6687;47.790;7.322;2023-04-16T11:22:03;99414.72;;;15.38;56.30
13241;BME280;6687;47.790;7.322;2023-04-16T11:24:31;99409.63;;;15.28;56.72
13241;BME280;6687;47.790;7.322;2023-04-16T11:26:58;99408.78;;;15.23;57.26
13241;BME280;6687;47.790;7.322;2023-04-16T11:29:26;99414.97;;;15.13;57.97
13241;BME280;6687;47.790;7.322;2023-04-16T11:31:53;99416.88;;;14.96;58.86
13241;BME280;6687;47.790;7.322;2023-04-16T11:34:20;99423.81;;;14.97;59.41
13241;BME280;6687;47.790;7.322;2023-04-16T11:36:50;99426.44;;;14.92;59.48
13241;BME280;6687;47.790;7.322;2023-04-16T11:39:17;99418.63;;;14.94;59.43
13241;BME280;6687;47.790;7.322;2023-04-16T11:41:45;99424.84;;;14.79;60.04
13241;BME280;6687;47.790;7.322;2023-04-16T11:44:17;99429.41;;;14.43;63.76
13241;BME280;6687;47.790;7.322;2023-04-16T11:46:43;99431.34;;;14.05;67.91
13241;BME280;6687;47.790;7.322;2023-04-16T11:49:10;99427.69;;;14.37;65.93
13241;BME280;6687;47.790;7.322;2023-04-16T11:51:40;99420.78;;;14.35;66.09
13241;BME280;6687;47.790;7.322;2023-04-16T11:54:08;99435.72;;;13.94;69.55
13241;BME280;6687;47.790;7.322;2023-04-16T11:56:35;99429.44;;;14.32;63.84
13241;BME280;6687;47.790;7.322;2023-04-16T11:59:07;99425.13;;;14.32;63.06
13241;BME280;6687;47.790;7.322;2023-04-16T12:01:34;99425.94;;;14.36;62.73
13241;BME280;6687;47.790;7.322;2023-04-16T12:04:02;99430.31;;;14.36;62.55
13241;BME280;6687;47.790;7.322;2023-04-16T12:06:29;99430.31;;;14.36;62.89
13241;BME280;6687;47.790;7.322;2023-04-16T12:08:56;99427.75;;;14.32;63.84
13241;BME280;6687;47.790;7.322;2023-04-16T12:11:38;99434.72;;;14.27;63.58
13241;BME280;6687;47.790;7.322;2023-04-16T12:14:08;99429.50;;;14.29;63.34
13241;BME280;6687;47.790;7.322;2023-04-16T12:16:35;99419.88;;;14.34;63.62
13241;BME280;6687;47.790;7.322;2023-04-16T12:19:03;99437.34;;;14.21;65.10
13241;BME280;6687;47.790;7.322;2023-04-16T12:21:37;99427.84;;;14.12;69.67
13241;BME280;6687;47.790;7.322;2023-04-16T12:24:04;99434.19;;;13.33;72.65
13241;BME280;6687;47.790;7.322;2023-04-16T12:26:40;99429.81;;;13.40;71.97
13241;BME280;6687;47.790;7.322;2023-04-16T12:29:18;99434.97;;;13.64;73.81
13241;BME280;6687;47.790;7.322;2023-04-16T12:31:46;99431.47;;;13.73;73.67
13241;BME280;6687;47.790;7.322;2023-04-16T12:34:13;99435.78;;;13.83;73.04
13241;BME280;6687;47.790;7.322;2023-04-16T12:36:41;99437.56;;;13.66;74.18
13241;BME280;6687;47.790;7.322;2023-04-16T12:39:08;99442.78;;;13.57;74.60
13241;BME280;6687;47.790;7.322;2023-04-16T12:41:37;99441.94;;;13.50;74.75
13241;BME280;6687;47.790;7.322;2023-04-16T12:44:07;99440.25;;;13.12;79.17
13241;BME280;6687;47.790;7.322;2023-04-16T12:46:36;99441.94;;;13.41;75.98
13241;BME280;6687;47.790;7.322;2023-04-16T12:49:03;99440.22;;;13.52;71.26
13241;BME280;6687;47.790;7.322;2023-04-16T12:51:30;99432.38;;;13.57;72.88
13241;BME280;6687;47.790;7.322;2023-04-16T12:53:57;99436.75;;;13.50;75.29
13241;BME280;6687;47.790;7.322;2023-04-16T12:56:24;99444.56;;;13.47;77.23
13241;BME280;6687;47.790;7.322;2023-04-16T12:58:51;99440.22;;;13.49;79.10
13241;BME280;6687;47.790;7.322;2023-04-16T13:01:19;99436.72;;;13.59;78.39
13241;BME280;6687;47.790;7.322;2023-04-16T13:03:46;99433.25;;;13.60;73.29
13241;BME280;6687;47.790;7.322;2023-04-16T13:06:13;99434.09;;;13.64;71.35
13241;BME280;6687;47.790;7.322;2023-04-16T13:08:41;99428.91;;;13.67;70.03
13241;BME280;6687;47.790;7.322;2023-04-16T13:11:08;99430.63;;;13.68;69.63
13241;BME280;6687;47.790;7.322;2023-04-16T13:13:36;99425.41;;;13.71;68.81
13241;BME280;6687;47.790;7.322;2023-04-16T13:16:04;99428.00;;;13.76;70.38
13241;BME280;6687;47.790;7.322;2023-04-16T13:18:34;99424.53;;;13.73;73.78
13241;BME280;6687;47.790;7.322;2023-04-16T13:21:02;99427.13;;;13.72;77.11
13241;BME280;6687;47.790;7.322;2023-04-16T13:23:29;99422.84;;;13.54;81.29
13241;BME280;6687;47.790;7.322;2023-04-16T13:25:56;99414.16;;;13.52;83.67
13241;BME280;6687;47.790;7.322;2023-04-16T13:28:23;99418.41;;;13.85;78.05
13241;BME280;6687;47.790;7.322;2023-04-16T13:30:50;99422.84;;;13.54;81.88
13241;BME280;6687;47.790;7.322;2023-04-16T13:33:17;99431.53;;;13.59;84.77
13241;BME280;6687;47.790;7.322;2023-04-16T13:35:46;99433.25;;;13.60;84.79
13241;BME280;6687;47.790;7.322;2023-04-16T13:38:13;99433.25;;;13.63;86.42
13241;BME280;6687;47.790;7.322;2023-04-16T13:40:40;99433.19;;;13.72;86.42
13241;BME280;6687;47.790;7.322;2023-04-16T13:43:06;99432.25;;;13.95;85.95
13241;BME280;6687;47.790;7.322;2023-04-16T13:45:33;99432.97;;;14.26;81.18
13241;BME280;6687;47.790;7.322;2023-04-16T13:48:01;99432.09;;;14.26;83.73
13241;BME280;6687;47.790;7.322;2023-04-16T13:50:27;99432.22;;;14.01;87.15
13241;BME280;6687;47.790;7.322;2023-04-16T13:52:57;99424.16;;;14.46;85.65
13241;BME280;6687;47.790;7.322;2023-04-16T13:55:24;99430.22;;;14.48;84.74
13241;BME280;6687;47.790;7.322;2023-04-16T13:57:50;99432.91;;;14.37;83.68
13241;BME280;6687;47.790;7.322;2023-04-16T14:00:18;99422.28;;;14.71;81.90
13241;BME280;6687;47.790;7.322;2023-04-16T14:02:45;99418.03;;;14.56;81.24
13241;BME280;6687;47.790;7.322;2023-04-16T14:05:13;99420.78;;;14.30;79.13
13241;BME280;6687;47.790;7.322;2023-04-16T14:07:39;99425.09;;;14.36;77.78
13241;BME280;6687;47.790;7.322;2023-04-16T14:10:09;99418.16;;;14.31;76.68
13241;BME280;6687;47.790;7.322;2023-04-16T14:12:36;99409.94;;;14.95;74.95
13241;BME280;6687;47.790;7.322;2023-04-16T14:15:04;99415.31;;;14.70;74.12
13241;BME280;6687;47.790;7.322;2023-04-16T14:17:34;99417.22;;;14.43;73.86
13241;BME280;6687;47.790;7.322;2023-04-16T14:20:01;99415.03;;;15.07;71.94
13241;BME280;6687;47.790;7.322;2023-04-16T14:22:28;99418.72;;;14.81;72.30
13241;BME280;6687;47.790;7.322;2023-04-16T14:24:55;99411.75;;;14.86;71.36
13241;BME280;6687;47.790;7.322;2023-04-16T14:27:23;99408.84;;;15.16;71.00
13241;BME280;6687;47.790;7.322;2023-04-16T14:29:50;99411.50;;;15.11;70.10
13241;BME280;6687;47.790;7.322;2023-04-16T14:32:17;99408.34;;;14.75;70.43
13241;BME280;6687;47.790;7.322;2023-04-16T14:34:43;99400.47;;;14.83;69.14
13241;BME280;6687;47.790;7.322;2023-04-16T14:37:10;99397.34;;;15.34;68.11
13241;BME280;6687;47.790;7.322;2023-04-16T14:39:37;99393.44;;;15.78;68.06
13241;BME280;6687;47.790;7.322;2023-04-16T14:42:04;99398.59;;;15.81;66.82
13241;BME280;6687;47.790;7.322;2023-04-16T14:44:33;99404.31;;;16.10;65.42
13241;BME280;6687;47.790;7.322;2023-04-16T14:46:59;99400.19;;;16.55;65.88
13241;BME280;6687;47.790;7.322;2023-04-16T14:49:26;99400.03;;;16.03;63.48
13241;BME280;6687;47.790;7.322;2023-04-16T14:51:53;99409.03;;;15.84;63.04
13241;BME280;6687;47.790;7.322;2023-04-16T14:54:21;99392.00;;;16.78;62.59
13241;BME280;6687;47.790;7.322;2023-04-16T14:56:48;99399.44;;;17.02;62.46
13241;BME280;6687;47.790;7.322;2023-04-16T14:59:15;99397.78;;;16.98;59.77
13241;BME280;6687;47.790;7.322;2023-04-16T15:01:43;99392.56;;;16.97;58.66
13241;BME280;6687;47.790;7.322;2023-04-16T15:04:10;99392.50;;;17.01;58.38
13241;BME280;6687;47.790;7.322;2023-04-16T15:06:37;99394.63;;;17.29;56.52
13241;BME280;6687;47.790;7.322;2023-04-16T15:09:04;99386.28;;;17.55;58.99
13241;BME280;6687;47.790;7.322;2023-04-16T15:11:31;99400.03;;;17.20;55.20
13241;BME280;6687;47.790;7.322;2023-04-16T15:13:58;99392.59;;;17.45;55.72
13241;BME280;6687;47.790;7.322;2023-04-16T15:16:25;99394.72;;;17.23;55.35
13241;BME280;6687;47.790;7.322;2023-04-16T15:18:53;99396.63;;;16.60;55.81
13241;BME280;6687;47.790;7.322;2023-04-16T15:21:20;99399.63;;;16.34;55.45
13241;BME280;6687;47.790;7.322;2023-04-16T15:23:47;99396.84;;;16.45;54.65
13241;BME280;6687;47.790;7.322;2023-04-16T15:26:14;99399.34;;;15.94;54.94
13241;BME280;6687;47.790;7.322;2023-04-16T15:28:41;99402.00;;;16.51;54.26
13241;BME280;6687;47.790;7.322;2023-04-16T15:31:07;99404.28;;;16.73;60.51
13241;BME280;6687;47.790;7.322;2023-04-16T15:33:34;99399.91;;;16.73;61.26
13241;BME280;6687;47.790;7.322;2023-04-16T15:36:02;99403.44;;;16.69;60.44
13241;BME280;6687;47.790;7.322;2023-04-16T15:38:29;99410.31;;;16.19;58.55
13241;BME280;6687;47.790;7.322;2023-04-16T15:40:57;99410.44;;;16.09;58.60
13241;BME280;6687;47.790;7.322;2023-04-16T15:43:26;99410.56;;;16.00;58.78
13241;BME280;6687;47.790;7.322;2023-04-16T15:45:53;99411.16;;;15.48;60.83
13241;BME280;6687;47.790;7.322;2023-04-16T15:48:20;99405.50;;;15.88;59.89
13241;BME280;6687;47.790;7.322;2023-04-16T15:50:47;99409.19;;;15.67;62.03
13241;BME280;6687;47.790;7.322;2023-04-16T15:53:16;99416.91;;;15.79;61.61
13241;BME280;6687;47.790;7.322;2023-04-16T15:55:42;99415.75;;;15.23;63.06
13241;BME280;6687;47.790;7.322;2023-04-16T15:58:09;99423.69;;;15.12;64.51
13241;BME280;6687;47.790;7.322;2023-04-16T16:00:37;99423.56;;;15.24;64.79
13241;BME280;6687;47.790;7.322;2023-04-16T16:03:04;99422.28;;;14.71;65.92
13241;BME280;6687;47.790;7.322;2023-04-16T16:05:31;99428.56;;;14.39;66.05
13241;BME280;6687;47.790;7.322;2023-04-16T16:07:57;99430.06;;;14.76;64.67
13241;BME280;6687;47.790;7.322;2023-04-16T16:10:27;99422.66;;;14.02;65.91
13241;BME280;6687;47.790;7.322;2023-04-16T16:12:54;99426.94;;;14.18;65.78
13241;BME280;6687;47.790;7.322;2023-04-16T16:15:21;99433.00;;;14.22;65.33
13241;BME280;6687;47.790;7.322;2023-04-16T16:17:48;99434.06;;;13.79;65.94
13241;BME280;6687;47.790;7.322;2023-04-16T16:20:17;99432.94;;;14.31;65.08
13241;BME280;6687;47.790;7.322;2023-04-16T16:22:43;99439.78;;;14.47;65.09
13241;BME280;6687;47.790;7.322;2023-04-16T16:25:11;99436.50;;;14.19;66.22
13241;BME280;6687;47.790;7.322;2023-04-16T16:27:39;99438.16;;;14.29;66.32
13241;BME280;6687;47.790;7.322;2023-04-16T16:30:08;99436.66;;;13.75;67.72
13241;BME280;6687;47.790;7.322;2023-04-16T16:32:34;99436.63;;;13.84;68.42
13241;BME280;6687;47.790;7.322;2023-04-16T16:35:05;99438.34;;;13.92;68.90
13241;BME280;6687;47.790;7.322;2023-04-16T16:37:32;99433.19;;;13.83;68.45
13241;BME280;6687;47.790;7.322;2023-04-16T16:39:59;99434.75;;;14.23;67.15
13241;BME280;6687;47.790;7.322;2023-04-16T16:42:26;99439.31;;;13.55;68.03
13241;BME280;6687;47.790;7.322;2023-04-16T16:44:54;99444.44;;;13.84;67.22
13241;BME280;6687;47.790;7.322;2023-04-16T16:47:20;99441.84;;;13.84;67.65
13241;BME280;6687;47.790;7.322;2023-04-16T16:49:48;99445.22;;;14.07;66.99
13241;BME280;6687;47.790;7.322;2023-04-16T16:52:15;99443.47;;;14.06;67.47
13241;BME280;6687;47.790;7.322;2023-04-16T16:54:42;99448.81;;;13.85;68.33
13241;BME280;6687;47.790;7.322;2023-04-16T16:57:10;99443.56;;;13.88;68.30
13241;BME280;6687;47.790;7.322;2023-04-16T16:59:37;99446.19;;;13.83;69.10
13241;BME280;6687;47.790;7.322;2023-04-16T17:02:06;99454.03;;;13.79;69.85
13241;BME280;6687;47.790;7.322;2023-04-16T17:04:32;99453.94;;;14.00;68.60
13241;BME280;6687;47.790;7.322;2023-04-16T17:06:59;99446.19;;;13.83;69.93
13241;BME280;6687;47.790;7.322;2023-04-16T17:09:26;99448.88;;;13.63;70.88
13241;BME280;6687;47.790;7.322;2023-04-16T17:11:52;99447.91;;;13.84;70.12
13241;BME280;6687;47.790;7.322;2023-04-16T17:14:19;99448.81;;;13.74;71.19
13241;BME280;6687;47.790;7.322;2023-04-16T17:16:46;99450.56;;;13.83;70.19
13241;BME280;6687;47.790;7.322;2023-04-16T17:19:16;99445.34;;;13.70;70.56
13241;BME280;6687;47.790;7.322;2023-04-16T17:21:44;99452.38;;;13.18;71.04
13241;BME280;6687;47.790;7.322;2023-04-16T17:24:11;99457.56;;;13.28;69.29
13241;BME280;6687;47.790;7.322;2023-04-16T17:26:37;99455.81;;;13.58;68.84
13241;BME280;6687;47.790;7.322;2023-04-16T17:29:05;99454.09;;;13.11;68.79
13241;BME280;6687;47.790;7.322;2023-04-16T17:31:32;99454.97;;;13.21;68.60
13241;BME280;6687;47.790;7.322;2023-04-16T17:33:58;99456.72;;;12.97;69.07
13241;BME280;6687;47.790;7.322;2023-04-16T17:36:26;99451.50;;;13.19;68.23
13241;BME280;6687;47.790;7.322;2023-04-16T17:38:53;99454.09;;;13.05;68.14
13241;BME280;6687;47.790;7.322;2023-04-16T17:41:20;99450.66;;;13.33;67.62
13241;BME280;6687;47.790;7.322;2023-04-16T17:43:47;99460.19;;;13.44;67.14
13241;BME280;6687;47.790;7.322;2023-04-16T17:46:14;99453.25;;;13.26;67.21
13241;BME280;6687;47.790;7.322;2023-04-16T17:48:42;99455.00;;;13.05;67.76
13241;BME280;6687;47.790;7.322;2023-04-16T17:51:09;99460.19;;;12.90;67.64
13241;BME280;6687;47.790;7.322;2023-04-16T17:53:38;99465.38;;;12.93;67.30
13241;BME280;6687;47.790;7.322;2023-04-16T17:56:06;99468.00;;;13.13;67.17
13241;BME280;6687;47.790;7.322;2023-04-16T17:58:33;99466.25;;;13.00;67.32
13241;BME280;6687;47.790;7.322;2023-04-16T18:01:00;99470.59;;;12.96;67.01
13241;BME280;6687;47.790;7.322;2023-04-16T18:03:27;99471.41;;;12.63;68.93
13241;BME280;6687;47.790;7.322;2023-04-16T18:05:54;99474.06;;;13.01;68.55
13241;BME280;6687;47.790;7.322;2023-04-16T18:08:21;99475.78;;;12.94;68.32
13241;BME280;6687;47.790;7.322;2023-04-16T18:10:50;99480.13;;;13.14;67.96
13241;BME280;6687;47.790;7.322;2023-04-16T18:13:16;99473.19;;;13.11;68.47
13241;BME280;6687;47.790;7.322;2023-04-16T18:15:43;99475.78;;;13.02;69.29
13241;BME280;6687;47.790;7.322;2023-04-16T18:18:10;99474.94;;;13.08;69.22
13241;BME280;6687;47.790;7.322;2023-04-16T18:20:37;99474.91;;;13.05;69.30
13241;BME280;6687;47.790;7.322;2023-04-16T18:23:03;99474.94;;;13.00;69.90
13241;BME280;6687;47.790;7.322;2023-04-16T18:25:30;99473.19;;;13.07;69.74
13241;BME280;6687;47.790;7.322;2023-04-16T18:27:58;99476.66;;;13.03;70.09
13241;BME280;6687;47.790;7.322;2023-04-16T18:30:25;99486.22;;;13.10;69.87
13241;BME280;6687;47.790;7.322;2023-04-16T18:32:52;99481.84;;;13.03;70.19
13241;BME280;6687;47.790;7.322;2023-04-16T18:35:18;99485.31;;;13.05;70.58